sensor_id;sensor_type;location;lat;lon;timestamp;pressure;altitude;pressure_sealevel;temperature;humidity
4085;BME280;2057;50.858;6.572;2023-06-22T00:02:05;100533.22;;;23.37;64.27
4085;BME280;2057;50.858;6.572;2023-06-22T00:04:30;100531.47;;;23.42;64.33
4085;BME280;2057;50.858;6.572;2023-06-22T00:06:56;100540.97;;;23.48;64.07
4085;BME280;2057;50.858;6.572;2023-06-22T00:09:21;100534.09;;;23.30;64.33
4085;BME280;2057;50.858;6.572;2023-06-22T00:11:46;100538.38;;;23.37;63.92
4085;BME280;2057;50.858;6.572;2023-06-22T00:14:12;100537.53;;;23.44;63.86
4085;BME280;2057;50.858;6.572;2023-06-22T00:16:37;100536.66;;;23.42;63.85
4085;BME280;2057;50.858;6.572;2023-06-22T00:19:05;100541.88;;;23.36;63.77
4085;BME280;2057;50.858;6.572;2023-06-22T00:21:30;100534.94;;;23.37;63.60
4085;BME280;2057;50.858;6.572;2023-06-22T00:23:56;100544.47;;;23.41;63.25
4085;BME280;2057;50.858;6.572;2023-06-22T00:26:22;100528.06;;;23.26;63.94
4085;BME280;2057;50.858;6.572;2023-06-22T00:28:47;100534.09;;;23.16;64.28
4085;BME280;2057;50.858;6.572;2023-06-22T00:31:13;100534.97;;;23.30;63.37
4085;BME280;2057;50.858;6.572;2023-06-22T00:33:39;100531.50;;;23.33;63.27
4085;BME280;2057;50.858;6.572;2023-06-22T00:36:05;100534.97;;;23.29;63.29
4085;BME280;2057;50.858;6.572;2023-06-22T00:38:31;100531.53;;;23.28;63.92
4085;BME280;2057;50.858;6.572;2023-06-22T00:40:56;100529.78;;;23.27;63.94
4085;BME280;2057;50.858;6.572;2023-06-22T00:43:22;100522.00;;;23.32;63.43
4085;BME280;2057;50.858;6.572;2023-06-22T00:45:47;100525.44;;;23.32;63.59
4085;BME280;2057;50.858;6.572;2023-06-22T00:48:13;100523.75;;;23.28;64.08
4085;BME280;2057;50.858;6.572;2023-06-22T00:50:40;100522.91;;;23.22;64.41
4085;BME280;2057;50.858;6.572;2023-06-22T00:53:06;100525.50;;;23.22;63.92
4085;BME280;2057;50.858;6.572;2023-06-22T00:55:37;100522.91;;;23.22;64.18
4085;BME280;2057;50.858;6.572;2023-06-22T00:58:05;100522.91;;;23.25;64.11
4085;BME280;2057;50.858;6.572;2023-06-22T01:00:33;100522.06;;;23.21;64.55
4085;BME280;2057;50.858;6.572;2023-06-22T01:02:59;100513.41;;;23.19;64.12
4085;BME280;2057;50.858;6.572;2023-06-22T01:05:24;100513.41;;;23.21;64.36
4085;BME280;2057;50.858;6.572;2023-06-22T01:11:26;100514.28;;;23.18;65.11
4085;BME280;2057;50.858;6.572;2023-06-22T01:14:06;100509.09;;;23.12;65.12
4085;BME280;2057;50.858;6.572;2023-06-22T01:16:39;100501.31;;;23.13;65.08
4085;BME280;2057;50.858;6.572;2023-06-22T01:19:39;100499.59;;;23.09;65.29
4085;BME280;2057;50.858;6.572;2023-06-22T01:22:10;100497.00;;;23.09;65.46
4085;BME280;2057;50.858;6.572;2023-06-22T01:30:30;100479.78;;;22.93;65.93
4085;BME280;2057;50.858;6.572;2023-06-22T01:33:01;100487.56;;;22.90;66.49
4085;BME280;2057;50.858;6.572;2023-06-22T01:35:28;100488.44;;;22.79;66.96
4085;BME280;2057;50.858;6.572;2023-06-22T01:37:54;100490.13;;;22.86;66.31
4085;BME280;2057;50.858;6.572;2023-06-22T01:40:21;100491.00;;;22.84;66.69
4085;BME280;2057;50.858;6.572;2023-06-22T01:42:47;100490.16;;;22.80;66.46
4085;BME280;2057;50.858;6.572;2023-06-22T01:45:13;100480.69;;;22.78;66.70
4085;BME280;2057;50.858;6.572;2023-06-22T01:47:40;100482.41;;;22.79;66.29
4085;BME280;2057;50.858;6.572;2023-06-22T01:50:06;100482.38;;;22.77;66.29
4085;BME280;2057;50.858;6.572;2023-06-22T01:52:32;100478.94;;;22.80;66.41
4085;BME280;2057;50.858;6.572;2023-06-22T01:54:59;100478.06;;;22.85;66.74
4085;BME280;2057;50.858;6.572;2023-06-22T01:57:25;100478.09;;;22.70;66.81
4085;BME280;2057;50.858;6.572;2023-06-22T01:59:59;100471.19;;;22.72;67.35
4085;BME280;2057;50.858;6.572;2023-06-22T02:02:28;100474.63;;;22.59;67.64
4085;BME280;2057;50.858;6.572;2023-06-22T02:05:04;100467.72;;;22.70;67.10
4085;BME280;2057;50.858;6.572;2023-06-22T02:07:33;100468.63;;;22.66;67.79
4085;BME280;2057;50.858;6.572;2023-06-22T02:10:00;100469.44;;;22.68;67.59
4085;BME280;2057;50.858;6.572;2023-06-22T02:12:27;100467.72;;;22.70;67.19
4085;BME280;2057;50.858;6.572;2023-06-22T02:14:54;100474.63;;;22.68;67.87
4085;BME280;2057;50.858;6.572;2023-06-22T02:17:19;100479.81;;;22.66;67.30
4085;BME280;2057;50.858;6.572;2023-06-22T02:19:45;100475.50;;;22.64;67.28
4085;BME280;2057;50.858;6.572;2023-06-22T02:22:10;100480.69;;;22.68;67.41
4085;BME280;2057;50.858;6.572;2023-06-22T02:24:36;100477.25;;;22.65;67.31
4085;BME280;2057;50.858;6.572;2023-06-22T02:27:02;100480.69;;;22.58;67.15
4085;BME280;2057;50.858;6.572;2023-06-22T02:29:28;100475.50;;;22.65;67.41
4085;BME280;2057;50.858;6.572;2023-06-22T02:31:54;100476.38;;;22.66;67.22
4085;BME280;2057;50.858;6.572;2023-06-22T02:34:21;100470.34;;;22.58;67.24
4085;BME280;2057;50.858;6.572;2023-06-22T02:36:47;100465.16;;;22.62;67.79
4085;BME280;2057;50.858;6.572;2023-06-22T02:39:23;100460.84;;;22.66;67.27
4085;BME280;2057;50.858;6.572;2023-06-22T02:41:50;100453.94;;;22.63;67.46
4085;BME280;2057;50.858;6.572;2023-06-22T02:44:15;100453.94;;;22.59;67.75
4085;BME280;2057;50.858;6.572;2023-06-22T02:46:41;100457.41;;;22.58;68.00
4085;BME280;2057;50.858;6.572;2023-06-22T02:49:06;100459.97;;;22.56;67.98
4085;BME280;2057;50.858;6.572;2023-06-22T02:51:35;100453.94;;;22.52;68.66
4085;BME280;2057;50.858;6.572;2023-06-22T02:54:00;100445.34;;;22.56;68.49
4085;BME280;2057;50.858;6.572;2023-06-22T02:56:26;100445.31;;;22.55;68.34
4085;BME280;2057;50.858;6.572;2023-06-22T02:58:51;100442.75;;;22.52;68.67
4085;BME280;2057;50.858;6.572;2023-06-22T03:01:17;100441.00;;;22.52;68.88
4085;BME280;2057;50.858;6.572;2023-06-22T03:03:49;100447.06;;;22.58;68.97
4085;BME280;2057;50.858;6.572;2023-06-22T03:06:14;100437.56;;;22.53;68.99
4085;BME280;2057;50.858;6.572;2023-06-22T03:08:40;100435.81;;;22.57;69.11
4085;BME280;2057;50.858;6.572;2023-06-22T03:11:06;100430.66;;;22.35;70.18
4085;BME280;2057;50.858;6.572;2023-06-22T03:13:33;100432.38;;;22.32;69.81
4085;BME280;2057;50.858;6.572;2023-06-22T03:15:58;100432.38;;;22.29;70.50
4085;BME280;2057;50.858;6.572;2023-06-22T03:18:23;100433.25;;;22.31;70.29
4085;BME280;2057;50.858;6.572;2023-06-22T03:20:49;100419.44;;;22.38;70.13
4085;BME280;2057;50.858;6.572;2023-06-22T03:23:14;100417.69;;;22.34;72.73
4085;BME280;2057;50.858;6.572;2023-06-22T03:25:40;100412.56;;;22.26;74.45
4085;BME280;2057;50.858;6.572;2023-06-22T03:28:06;100405.66;;;22.23;75.80
4085;BME280;2057;50.858;6.572;2023-06-22T03:30:31;100403.06;;;22.19;77.10
4085;BME280;2057;50.858;6.572;2023-06-22T03:32:57;100399.63;;;22.07;75.42
4085;BME280;2057;50.858;6.572;2023-06-22T03:35:22;100400.50;;;22.14;75.61
4085;BME280;2057;50.858;6.572;2023-06-22T03:37:47;100396.16;;;21.99;75.58
4085;BME280;2057;50.858;6.572;2023-06-22T03:40:13;100381.50;;;21.95;76.08
4085;BME280;2057;50.858;6.572;2023-06-22T03:42:38;100386.69;;;22.03;76.21
4085;BME280;2057;50.858;6.572;2023-06-22T03:45:04;100380.66;;;21.91;76.91
4085;BME280;2057;50.858;6.572;2023-06-22T03:47:29;100383.22;;;21.81;76.81
4085;BME280;2057;50.858;6.572;2023-06-22T03:49:55;100381.47;;;21.59;78.90
4085;BME280;2057;50.858;6.572;2023-06-22T03:52:21;100390.09;;;21.65;77.82
4085;BME280;2057;50.858;6.572;2023-06-22T03:54:47;100389.25;;;21.84;77.36
4085;BME280;2057;50.858;6.572;2023-06-22T03:57:13;100391.84;;;21.93;75.85
4085;BME280;2057;50.858;6.572;2023-06-22T03:59:38;100388.41;;;21.76;76.58
4085;BME280;2057;50.858;6.572;2023-06-22T04:02:03;100386.66;;;21.76;77.10
4085;BME280;2057;50.858;6.572;2023-06-22T04:04:29;100386.69;;;21.87;77.06
4085;BME280;2057;50.858;6.572;2023-06-22T04:06:54;100397.91;;;21.85;77.20
4085;BME280;2057;50.858;6.572;2023-06-22T04:09:20;100408.22;;;21.86;77.22
4085;BME280;2057;50.858;6.572;2023-06-22T04:11:47;100414.25;;;21.81;76.71
4085;BME280;2057;50.858;6.572;2023-06-22T04:14:12;100411.59;;;21.56;77.04
4085;BME280;2057;50.858;6.572;2023-06-22T04:16:37;100421.13;;;21.71;77.37
4085;BME280;2057;50.858;6.572;2023-06-22T04:19:03;100415.97;;;21.80;77.14
4085;BME280;2057;50.858;6.572;2023-06-22T04:21:28;100415.97;;;21.83;77.04
4085;BME280;2057;50.858;6.572;2023-06-22T04:23:53;100428.03;;;21.90;76.04
4085;BME280;2057;50.858;6.572;2023-06-22T04:26:19;100423.75;;;21.96;76.26
4085;BME280;2057;50.858;6.572;2023-06-22T04:28:47;100420.31;;;21.97;76.24
4085;BME280;2057;50.858;6.572;2023-06-22T04:31:17;100431.47;;;21.89;77.23
4085;BME280;2057;50.858;6.572;2023-06-22T04:33:42;100436.66;;;21.89;77.69
4085;BME280;2057;50.858;6.572;2023-06-22T04:36:07;100428.03;;;21.89;77.39
4085;BME280;2057;50.858;6.572;2023-06-22T04:38:33;100424.59;;;21.91;78.21
4085;BME280;2057;50.858;6.572;2023-06-22T04:40:58;100428.91;;;21.92;77.43
4085;BME280;2057;50.858;6.572;2023-06-22T04:43:23;100420.28;;;21.86;78.21
4085;BME280;2057;50.858;6.572;2023-06-22T04:45:49;100426.25;;;21.58;80.09
4085;BME280;2057;50.858;6.572;2023-06-22T04:48:17;100420.19;;;21.50;80.81
4085;BME280;2057;50.858;6.572;2023-06-22T04:50:42;100421.00;;;21.40;81.22
4085;BME280;2057;50.858;6.572;2023-06-22T04:53:09;100417.69;;;21.67;80.60
4085;BME280;2057;50.858;6.572;2023-06-22T04:55:39;100416.84;;;21.85;79.95
4085;BME280;2057;50.858;6.572;2023-06-22T04:58:07;100405.63;;;21.92;78.23
4085;BME280;2057;50.858;6.572;2023-06-22T05:00:32;100407.38;;;21.83;79.05
4085;BME280;2057;50.858;6.572;2023-06-22T05:03:01;100405.63;;;21.86;78.76
4085;BME280;2057;50.858;6.572;2023-06-22T05:05:28;100402.19;;;21.93;77.81
4085;BME280;2057;50.858;6.572;2023-06-22T05:07:56;100397.88;;;21.83;78.08
4085;BME280;2057;50.858;6.572;2023-06-22T05:10:25;100397.03;;;21.87;78.08
4085;BME280;2057;50.858;6.572;2023-06-22T05:12:50;100402.19;;;21.87;78.33
4085;BME280;2057;50.858;6.572;2023-06-22T05:15:16;100400.47;;;21.92;78.50
4085;BME280;2057;50.858;6.572;2023-06-22T05:17:41;100411.69;;;22.01;78.12
4085;BME280;2057;50.858;6.572;2023-06-22T05:20:13;100415.13;;;21.93;77.81
4085;BME280;2057;50.858;6.572;2023-06-22T05:22:39;100410.81;;;21.96;78.30
4085;BME280;2057;50.858;6.572;2023-06-22T05:25:08;100413.41;;;22.02;78.53
4085;BME280;2057;50.858;6.572;2023-06-22T05:27:33;100414.28;;;22.08;78.18
4085;BME280;2057;50.858;6.572;2023-06-22T05:29:58;100413.41;;;21.80;79.78
4085;BME280;2057;50.858;6.572;2023-06-22T05:32:24;100413.41;;;22.00;78.75
4085;BME280;2057;50.858;6.572;2023-06-22T05:34:49;100410.84;;;22.09;78.18
4085;BME280;2057;50.858;6.572;2023-06-22T05:37:14;100405.66;;;22.11;78.53
4085;BME280;2057;50.858;6.572;2023-06-22T05:39:40;100409.09;;;22.01;79.89
4085;BME280;2057;50.858;6.572;2023-06-22T05:42:05;100407.38;;;22.06;79.84
4085;BME280;2057;50.858;6.572;2023-06-22T05:44:31;100409.97;;;22.07;79.14
4085;BME280;2057;50.858;6.572;2023-06-22T05:46:58;100416.00;;;22.20;77.72
4085;BME280;2057;50.858;6.572;2023-06-22T05:49:23;100421.16;;;22.16;77.27
4085;BME280;2057;50.858;6.572;2023-06-22T05:51:54;100421.19;;;22.14;75.87
4085;BME280;2057;50.858;6.572;2023-06-22T05:54:19;100413.41;;;22.14;77.19
4085;BME280;2057;50.858;6.572;2023-06-22T05:56:45;100415.13;;;22.31;77.67
4085;BME280;2057;50.858;6.572;2023-06-22T05:59:10;100422.94;;;22.40;77.26
4085;BME280;2057;50.858;6.572;2023-06-22T06:01:35;100420.31;;;22.43;76.58
4085;BME280;2057;50.858;6.572;2023-06-22T06:04:04;100419.44;;;22.60;76.40
4085;BME280;2057;50.858;6.572;2023-06-22T06:06:30;100421.13;;;22.73;75.70
4085;BME280;2057;50.858;6.572;2023-06-22T06:08:55;100428.09;;;22.49;76.74
4085;BME280;2057;50.858;6.572;2023-06-22T06:11:21;100429.81;;;22.43;77.60
4085;BME280;2057;50.858;6.572;2023-06-22T06:13:47;100428.06;;;22.62;77.57
4085;BME280;2057;50.858;6.572;2023-06-22T06:16:12;100426.34;;;22.47;77.14
4085;BME280;2057;50.858;6.572;2023-06-22T06:18:37;100433.25;;;22.54;77.87
4085;BME280;2057;50.858;6.572;2023-06-22T06:21:03;100437.56;;;22.52;77.01
4085;BME280;2057;50.858;6.572;2023-06-22T06:23:28;100435.81;;;22.59;77.46
4085;BME280;2057;50.858;6.572;2023-06-22T06:25:53;100438.41;;;22.74;76.50
4085;BME280;2057;50.858;6.572;2023-06-22T06:28:19;100438.38;;;22.83;76.05
4085;BME280;2057;50.858;6.572;2023-06-22T06:30:44;100440.97;;;22.83;76.30
4085;BME280;2057;50.858;6.572;2023-06-22T06:33:12;100445.25;;;22.91;75.28
4085;BME280;2057;50.858;6.572;2023-06-22T06:35:38;100442.63;;;23.01;74.99
4085;BME280;2057;50.858;6.572;2023-06-22T06:38:03;100429.66;;;23.11;74.75
4085;BME280;2057;50.858;6.572;2023-06-22T06:40:29;100427.03;;;23.17;74.20
4085;BME280;2057;50.858;6.572;2023-06-22T06:42:54;100432.22;;;23.17;74.36
4085;BME280;2057;50.858;6.572;2023-06-22T06:45:21;100425.31;;;23.25;74.24
4085;BME280;2057;50.858;6.572;2023-06-22T06:47:51;100412.31;;;23.30;73.50
4085;BME280;2057;50.858;6.572;2023-06-22T06:50:17;100420.06;;;23.42;74.53
4085;BME280;2057;50.858;6.572;2023-06-22T06:52:43;100419.13;;;23.54;73.43
4085;BME280;2057;50.858;6.572;2023-06-22T06:55:09;100416.56;;;23.42;74.01
4085;BME280;2057;50.858;6.572;2023-06-22T06:57:38;100413.13;;;23.46;73.66
4085;BME280;2057;50.858;6.572;2023-06-22T07:00:10;100412.28;;;23.42;73.76
4085;BME280;2057;50.858;6.572;2023-06-22T07:02:41;100407.19;;;23.24;74.21
4085;BME280;2057;50.858;6.572;2023-06-22T07:05:07;100401.91;;;23.42;74.91
4085;BME280;2057;50.858;6.572;2023-06-22T07:07:33;100395.84;;;23.42;74.96
4085;BME280;2057;50.858;6.572;2023-06-22T07:09:59;100391.41;;;23.64;74.82
4085;BME280;2057;50.858;6.572;2023-06-22T07:12:24;100394.84;;;23.63;75.83
4085;BME280;2057;50.858;6.572;2023-06-22T07:14:49;100380.16;;;23.65;75.07
4085;BME280;2057;50.858;6.572;2023-06-22T07:17:16;100372.31;;;23.77;75.18
4085;BME280;2057;50.858;6.572;2023-06-22T07:19:41;100368.88;;;23.74;77.05
4085;BME280;2057;50.858;6.572;2023-06-22T07:22:07;100374.84;;;23.80;76.46
4085;BME280;2057;50.858;6.572;2023-06-22T07:24:32;100369.66;;;23.80;76.92
4085;BME280;2057;50.858;6.572;2023-06-22T07:26:58;100353.06;;;24.06;75.55
4085;BME280;2057;50.858;6.572;2023-06-22T07:29:24;100349.66;;;24.04;76.49
4085;BME280;2057;50.858;6.572;2023-06-22T07:31:50;100339.31;;;23.98;76.57
4085;BME280;2057;50.858;6.572;2023-06-22T07:34:16;100346.25;;;23.90;77.16
4085;BME280;2057;50.858;6.572;2023-06-22T07:36:43;100345.31;;;24.02;76.41
4085;BME280;2057;50.858;6.572;2023-06-22T07:39:08;100351.28;;;24.15;76.34
4085;BME280;2057;50.858;6.572;2023-06-22T07:41:34;100354.53;;;24.32;75.86
4085;BME280;2057;50.858;6.572;2023-06-22T07:43:59;100350.84;;;24.58;75.74
4085;BME280;2057;50.858;6.572;2023-06-22T07:46:24;100346.84;;;24.27;75.66
4085;BME280;2057;50.858;6.572;2023-06-22T07:48:50;100345.97;;;24.24;75.25
4085;BME280;2057;50.858;6.572;2023-06-22T07:51:15;100330.28;;;24.39;76.99
4085;BME280;2057;50.858;6.572;2023-06-22T07:53:41;100325.78;;;24.54;76.18
4085;BME280;2057;50.858;6.572;2023-06-22T07:56:06;100318.03;;;24.52;75.63
4085;BME280;2057;50.858;6.572;2023-06-22T07:58:32;100318.78;;;24.61;75.32
4085;BME280;2057;50.858;6.572;2023-06-22T08:00:58;100317.91;;;24.62;75.00
4085;BME280;2057;50.858;6.572;2023-06-22T08:03:23;100304.59;;;24.89;74.74
4085;BME280;2057;50.858;6.572;2023-06-22T08:05:49;100300.38;;;24.81;75.32
4085;BME280;2057;50.858;6.572;2023-06-22T08:08:15;100310.56;;;24.96;75.21
4085;BME280;2057;50.858;6.572;2023-06-22T08:10:40;100312.28;;;24.97;75.66
4085;BME280;2057;50.858;6.572;2023-06-22T08:13:06;100312.13;;;25.08;73.32
4085;BME280;2057;50.858;6.572;2023-06-22T08:15:31;100301.66;;;25.16;74.84
4085;BME280;2057;50.858;6.572;2023-06-22T08:17:56;100306.75;;;25.22;74.44
4085;BME280;2057;50.858;6.572;2023-06-22T08:20:23;100296.44;;;25.16;74.25
4085;BME280;2057;50.858;6.572;2023-06-22T08:22:48;100292.13;;;25.15;75.61
4085;BME280;2057;50.858;6.572;2023-06-22T08:25:13;100286.00;;;25.20;74.79
4085;BME280;2057;50.858;6.572;2023-06-22T08:27:39;100286.66;;;25.33;75.16
4085;BME280;2057;50.858;6.572;2023-06-22T08:30:06;100279.59;;;25.43;75.18
4085;BME280;2057;50.858;6.572;2023-06-22T08:32:31;100268.25;;;25.49;75.38
4085;BME280;2057;50.858;6.572;2023-06-22T08:34:58;100250.28;;;25.85;73.64
4085;BME280;2057;50.858;6.572;2023-06-22T08:37:24;100256.00;;;26.04;73.48
4085;BME280;2057;50.858;6.572;2023-06-22T08:39:55;100276.47;;;26.68;72.21
4085;BME280;2057;50.858;6.572;2023-06-22T08:42:20;100277.97;;;26.36;72.12
4085;BME280;2057;50.858;6.572;2023-06-22T08:44:46;100273.50;;;26.43;72.42
4085;BME280;2057;50.858;6.572;2023-06-22T08:47:11;100279.53;;;26.45;72.99
4085;BME280;2057;50.858;6.572;2023-06-22T08:49:37;100274.84;;;26.62;72.65
4085;BME280;2057;50.858;6.572;2023-06-22T08:52:02;100275.22;;;26.44;71.88
4085;BME280;2057;50.858;6.572;2023-06-22T08:54:27;100261.69;;;26.26;74.19
4085;BME280;2057;50.858;6.572;2023-06-22T08:56:53;100262.84;;;26.55;72.43
4085;BME280;2057;50.858;6.572;2023-06-22T08:59:18;100260.34;;;26.49;73.56
4085;BME280;2057;50.858;6.572;2023-06-22T09:01:43;100262.75;;;26.58;72.43
4085;BME280;2057;50.858;6.572;2023-06-22T09:04:13;100259.81;;;26.75;72.01
4085;BME280;2057;50.858;6.572;2023-06-22T09:06:40;100248.47;;;26.78;72.39
4085;BME280;2057;50.858;6.572;2023-06-22T09:09:10;100243.28;;;26.78;72.43
4085;BME280;2057;50.858;6.572;2023-06-22T09:11:35;100245.81;;;26.81;71.12
4085;BME280;2057;50.858;6.572;2023-06-22T09:14:01;100247.91;;;27.03;71.09
4085;BME280;2057;50.858;6.572;2023-06-22T09:16:27;100232.38;;;27.00;71.61
4085;BME280;2057;50.858;6.572;2023-06-22T09:18:53;100216.28;;;27.18;70.08
4085;BME280;2057;50.858;6.572;2023-06-22T09:21:18;100222.69;;;27.05;70.05
4085;BME280;2057;50.858;6.572;2023-06-22T09:23:44;100205.94;;;27.15;70.69
4085;BME280;2057;50.858;6.572;2023-06-22T09:26:12;100206.06;;;27.45;70.41
4085;BME280;2057;50.858;6.572;2023-06-22T09:28:37;100202.47;;;27.51;68.91
4085;BME280;2057;50.858;6.572;2023-06-22T09:31:03;100209.81;;;27.69;69.13
4085;BME280;2057;50.858;6.572;2023-06-22T09:33:28;100205.16;;;27.81;68.83
4085;BME280;2057;50.858;6.572;2023-06-22T09:35:53;100212.47;;;27.68;68.82
4085;BME280;2057;50.858;6.572;2023-06-22T09:38:19;100209.22;;;27.58;68.25
4085;BME280;2057;50.858;6.572;2023-06-22T09:40:44;100214.00;;;27.75;68.89
4085;BME280;2057;50.858;6.572;2023-06-22T09:43:09;100214.84;;;27.43;69.43
4085;BME280;2057;50.858;6.572;2023-06-22T09:45:35;100217.63;;;27.35;70.65
4085;BME280;2057;50.858;6.572;2023-06-22T09:48:00;100209.69;;;27.39;70.29
4085;BME280;2057;50.858;6.572;2023-06-22T09:50:25;100212.03;;;27.14;70.11
4085;BME280;2057;50.858;6.572;2023-06-22T09:52:51;100220.47;;;26.88;71.37
4085;BME280;2057;50.858;6.572;2023-06-22T09:55:20;100237.84;;;26.87;71.74
4085;BME280;2057;50.858;6.572;2023-06-22T09:57:45;100257.34;;;26.69;70.97
4085;BME280;2057;50.858;6.572;2023-06-22T10:00:11;100276.69;;;26.57;71.08
4085;BME280;2057;50.858;6.572;2023-06-22T10:02:39;100293.41;;;26.45;71.18
4085;BME280;2057;50.858;6.572;2023-06-22T10:05:04;100300.69;;;26.29;77.33
4085;BME280;2057;50.858;6.572;2023-06-22T10:07:30;100292.59;;;25.96;82.78
4085;BME280;2057;50.858;6.572;2023-06-22T10:09:55;100292.19;;;25.70;88.09
4085;BME280;2057;50.858;6.572;2023-06-22T10:12:20;100288.78;;;25.64;88.58
4085;BME280;2057;50.858;6.572;2023-06-22T10:14:45;100303.94;;;25.36;90.90
4085;BME280;2057;50.858;6.572;2023-06-22T10:17:11;100307.91;;;25.01;93.73
4085;BME280;2057;50.858;6.572;2023-06-22T10:19:36;100320.41;;;24.72;96.21
4085;BME280;2057;50.858;6.572;2023-06-22T10:22:03;100320.59;;;24.51;99.83
4085;BME280;2057;50.858;6.572;2023-06-22T10:24:29;100326.16;;;24.18;99.42
4085;BME280;2057;50.858;6.572;2023-06-22T10:26:54;100333.06;;;24.19;100.00
4085;BME280;2057;50.858;6.572;2023-06-22T10:29:20;100338.09;;;24.36;100.00
4085;BME280;2057;50.858;6.572;2023-06-22T10:31:48;100346.09;;;24.15;100.00
4085;BME280;2057;50.858;6.572;2023-06-22T10:34:13;100353.03;;;24.09;100.00
4085;BME280;2057;50.858;6.572;2023-06-22T10:36:39;100355.75;;;23.91;100.00
4085;BME280;2057;50.858;6.572;2023-06-22T10:39:04;100352.28;;;23.93;100.00
4085;BME280;2057;50.858;6.572;2023-06-22T10:41:31;100347.69;;;24.28;100.00
4085;BME280;2057;50.858;6.572;2023-06-22T10:43:56;100353.63;;;24.39;100.00
4085;BME280;2057;50.858;6.572;2023-06-22T10:46:24;100346.75;;;24.35;100.00
4085;BME280;2057;50.858;6.572;2023-06-22T10:48:49;100336.56;;;24.15;100.00
4085;BME280;2057;50.858;6.572;2023-06-22T10:51:15;100321.16;;;24.00;100.00
4085;BME280;2057;50.858;6.572;2023-06-22T10:53:40;100315.03;;;24.07;100.00
4085;BME280;2057;50.858;6.572;2023-06-22T10:56:06;100301.94;;;24.21;100.00
4085;BME280;2057;50.858;6.572;2023-06-22T10:58:31;100298.72;;;23.91;100.00
4085;BME280;2057;50.858;6.572;2023-06-22T11:00:57;100284.84;;;23.98;100.00
4085;BME280;2057;50.858;6.572;2023-06-22T11:03:22;100269.91;;;24.22;100.00
4085;BME280;2057;50.858;6.572;2023-06-22T11:05:47;100252.34;;;24.42;100.00
4085;BME280;2057;50.858;6.572;2023-06-22T11:08:13;100230.81;;;24.37;100.00
4085;BME280;2057;50.858;6.572;2023-06-22T11:10:38;100217.97;;;24.26;100.00
4085;BME280;2057;50.858;6.572;2023-06-22T11:13:03;100198.13;;;24.19;100.00
4085;BME280;2057;50.858;6.572;2023-06-22T11:15:30;100179.47;;;23.88;100.00
4085;BME280;2057;50.858;6.572;2023-06-22T11:17:56;100161.28;;;23.94;100.00
4085;BME280;2057;50.858;6.572;2023-06-22T11:20:22;100137.91;;;23.95;100.00
4085;BME280;2057;50.858;6.572;2023-06-22T11:22:47;100135.31;;;23.95;100.00
4085;BME280;2057;50.858;6.572;2023-06-22T11:25:12;100126.19;;;24.32;100.00
4085;BME280;2057;50.858;6.572;2023-06-22T11:27:38;100124.28;;;24.47;100.00
4085;BME280;2057;50.858;6.572;2023-06-22T11:30:04;100122.88;;;24.22;100.00
4085;BME280;2057;50.858;6.572;2023-06-22T11:32:29;100130.63;;;24.25;100.00
4085;BME280;2057;50.858;6.572;2023-06-22T11:34:55;100133.34;;;24.16;100.00
4085;BME280;2057;50.858;6.572;2023-06-22T11:37:20;100136.31;;;24.51;100.00
4085;BME280;2057;50.858;6.572;2023-06-22T11:39:45;100128.03;;;24.24;100.00
4085;BME280;2057;50.858;6.572;2023-06-22T11:42:11;100126.97;;;24.39;100.00
4085;BME280;2057;50.858;6.572;2023-06-22T11:44:38;100136.72;;;24.23;100.00
4085;BME280;2057;50.858;6.572;2023-06-22T11:47:03;100137.66;;;24.17;100.00
4085;BME280;2057;50.858;6.572;2023-06-22T11:49:32;100135.66;;;24.36;100.00
4085;BME280;2057;50.858;6.572;2023-06-22T11:51:58;100142.38;;;24.50;100.00
4085;BME280;2057;50.858;6.572;2023-06-22T11:54:24;100132.00;;;24.51;100.00
4085;BME280;2057;50.858;6.572;2023-06-22T11:56:49;100140.56;;;24.58;100.00
4085;BME280;2057;50.858;6.572;2023-06-22T11:59:15;100127.63;;;24.55;100.00
4085;BME280;2057;50.858;6.572;2023-06-22T12:01:40;100123.28;;;24.55;100.00
4085;BME280;2057;50.858;6.572;2023-06-22T12:04:05;100105.66;;;24.78;100.00
4085;BME280;2057;50.858;6.572;2023-06-22T12:06:35;100104.09;;;24.67;100.00
4085;BME280;2057;50.858;6.572;2023-06-22T12:09:04;100108.50;;;24.59;100.00
4085;BME280;2057;50.858;6.572;2023-06-22T12:11:30;100106.72;;;24.64;100.00
4085;BME280;2057;50.858;6.572;2023-06-22T12:13:55;100105.03;;;24.60;100.00
4085;BME280;2057;50.858;6.572;2023-06-22T12:16:21;100099.50;;;24.83;100.00
4085;BME280;2057;50.858;6.572;2023-06-22T12:18:47;100109.13;;;24.78;100.00
4085;BME280;2057;50.858;6.572;2023-06-22T12:21:12;100098.03;;;24.65;100.00
4085;BME280;2057;50.858;6.572;2023-06-22T12:23:37;100088.72;;;24.53;100.00
4085;BME280;2057;50.858;6.572;2023-06-22T12:26:04;100091.25;;;24.58;100.00
4085;BME280;2057;50.858;6.572;2023-06-22T12:28:29;100083.59;;;24.47;100.00
4085;BME280;2057;50.858;6.572;2023-06-22T12:36:05;100064.44;;;24.54;100.00
4085;BME280;2057;50.858;6.572;2023-06-22T12:38:30;100069.72;;;24.50;100.00
4085;BME280;2057;50.858;6.572;2023-06-22T12:40:55;100065.03;;;24.75;100.00
4085;BME280;2057;50.858;6.572;2023-06-22T12:45:55;100062.00;;;25.01;100.00
4085;BME280;2057;50.858;6.572;2023-06-22T13:29:49;100021.72;;;24.75;100.00
4085;BME280;2057;50.858;6.572;2023-06-22T13:40:00;99982.97;;;25.57;100.00
4085;BME280;2057;50.858;6.572;2023-06-22T13:42:28;99983.84;;;25.56;100.00
4085;BME280;2057;50.858;6.572;2023-06-22T13:44:53;99974.22;;;25.61;100.00
4085;BME280;2057;50.858;6.572;2023-06-22T13:47:19;99959.31;;;26.09;100.00
4085;BME280;2057;50.858;6.572;2023-06-22T13:49:44;99944.81;;;25.97;98.12
4085;BME280;2057;50.858;6.572;2023-06-22T13:52:09;99948.13;;;26.04;97.04
4085;BME280;2057;50.858;6.572;2023-06-22T13:54:36;99945.81;;;25.52;97.96
4085;BME280;2057;50.858;6.572;2023-06-22T13:57:02;99935.06;;;25.27;98.67
4085;BME280;2057;50.858;6.572;2023-06-22T13:59:27;99925.63;;;25.21;100.00
4085;BME280;2057;50.858;6.572;2023-06-22T14:01:53;99906.16;;;25.00;100.00
4085;BME280;2057;50.858;6.572;2023-06-22T14:04:19;99901.03;;;24.95;100.00
4085;BME280;2057;50.858;6.572;2023-06-22T14:06:44;99887.22;;;24.95;100.00
4085;BME280;2057;50.858;6.572;2023-06-22T14:09:09;99882.75;;;25.01;100.00
4085;BME280;2057;50.858;6.572;2023-06-22T14:11:35;99894.59;;;25.15;100.00